Time,TemperatureF,DewpointF,PressureIn,WindDirection,WindDirectionDegrees,WindSpeedMPH,WindSpeedGustMPH,Humidity,HourlyPrecipIn,Conditions,Clouds,dailyrainin,SoftwareType,DateUTC
2013-05-11 00:04:00,45.9,38.4,29.99,NE,56,0.0,0.0,75,0.00,,,0.00,VWS V14.01,2013-05-11 05:04:00,
2013-05-11 00:09:00,45.7,38.6,29.99,NE,56,0.0,0.0,76,0.00,,,0.00,VWS V14.01,2013-05-11 05:09:00,
2013-05-11 00:15:00,45.5,38.4,29.99,NE,56,0.0,0.0,76,0.00,,,0.00,VWS V14.01,2013-05-11 05:15:00,
2013-05-11 00:20:00,45.5,38.4,29.99,NE,56,0.0,0.0,76,0.00,,,0.00,VWS V14.01,2013-05-11 05:20:00,
2013-05-11 00:26:00,45.3,38.2,29.99,NE,56,0.0,0.0,76,0.00,,,0.00,VWS V14.01,2013-05-11 05:26:00,
2013-05-11 00:31:00,45.1,38.0,29.99,NE,56,0.0,0.0,76,0.00,,,0.00,VWS V14.01,2013-05-11 05:31:00,
2013-05-11 00:37:00,45.1,38.0,29.99,NE,56,0.0,0.0,76,0.00,,,0.00,VWS V14.01,2013-05-11 05:37:00,
2013-05-11 00:42:00,45.0,37.9,29.99,NE,56,0.0,0.0,76,0.00,,,0.00,VWS V14.01,2013-05-11 05:42:00,
2013-05-11 00:47:00,45.1,38.4,29.99,NE,56,0.0,0.0,77,0.00,,,0.00,VWS V14.01,2013-05-11 05:47:00,
2013-05-11 00:52:00,45.3,38.5,29.99,NE,56,0.0,0.0,77,0.00,,,0.00,VWS V14.01,2013-05-11 05:52:00,
2013-05-11 00:58:00,45.3,38.5,29.99,NE,56,0.0,0.0,77,0.00,,,0.00,VWS V14.01,2013-05-11 05:58:00,
2013-05-11 01:03:00,45.1,38.4,29.99,NE,56,0.0,0.0,77,0.00,,,0.00,VWS V14.01,2013-05-11 06:03:00,
2013-05-11 01:09:00,45.0,38.2,29.99,NE,56,0.0,0.0,77,0.00,,,0.00,VWS V14.01,2013-05-11 06:09:00,
2013-05-11 01:15:00,44.8,38.0,29.99,NE,56,0.0,0.0,77,0.00,,,0.00,VWS V14.01,2013-05-11 06:15:00,
2013-05-11 01:20:00,44.8,38.0,29.99,NE,56,0.0,0.0,77,0.00,,,0.00,VWS V14.01,2013-05-11 06:20:00,
2013-05-11 01:26:00,44.8,38.0,29.99,NE,56,0.0,0.0,77,0.00,,,0.00,VWS V14.01,2013-05-11 06:26:00,
2013-05-11 01:31:00,45.0,38.2,29.99,NE,56,0.0,0.0,77,0.00,,,0.00,VWS V14.01,2013-05-11 06:31:00,
2013-05-11 01:37:00,44.8,38.0,29.99,NE,56,0.0,0.0,77,0.00,,,0.00,VWS V14.01,2013-05-11 06:37:00,
2013-05-11 01:42:00,44.6,37.8,29.99,NE,56,0.0,0.0,77,0.00,,,0.00,VWS V14.01,2013-05-11 06:42:00,
2013-05-11 01:48:00,44.6,37.8,29.99,NE,56,0.0,0.0,77,0.00,,,0.00,VWS V14.01,2013-05-11 06:48:00,
2013-05-11 01:53:00,44.6,37.8,29.99,NE,56,0.0,0.0,77,0.00,,,0.00,VWS V14.01,2013-05-11 06:53:00,
2013-05-11 01:58:00,44.6,38.2,29.99,NE,56,0.0,0.0,78,0.00,,,0.00,VWS V14.01,2013-05-11 06:58:00,
2013-05-11 02:03:00,44.4,38.0,29.99,NE,56,0.0,0.0,78,0.00,,,0.00,VWS V14.01,2013-05-11 07:03:00,
2013-05-11 02:08:00,44.4,38.0,29.99,NE,56,0.0,0.0,78,0.00,,,0.00,VWS V14.01,2013-05-11 07:08:00,
2013-05-11 02:14:00,44.6,38.2,29.99,NE,56,0.0,0.0,78,0.00,,,0.00,VWS V14.01,2013-05-11 07:14:00,
2013-05-11 02:19:00,44.6,38.2,29.99,NE,56,0.0,0.0,78,0.00,,,0.00,VWS V14.01,2013-05-11 07:19:00,
2013-05-11 02:25:00,44.2,37.8,29.99,NE,56,0.0,0.0,78,0.00,,,0.00,VWS V14.01,2013-05-11 07:25:00,
2013-05-11 02:31:00,44.2,38.2,29.96,NE,56,0.0,0.0,79,0.00,,,0.00,VWS V14.01,2013-05-11 07:31:00,
2013-05-11 02:37:00,44.4,38.7,29.96,NE,56,0.0,0.0,80,0.00,,,0.00,VWS V14.01,2013-05-11 07:37:00,
2013-05-11 02:43:00,44.4,38.7,29.96,NE,56,0.0,0.0,80,0.00,,,0.00,VWS V14.01,2013-05-11 07:43:00,
2013-05-11 02:48:00,44.2,38.2,29.96,NE,56,0.0,0.0,79,0.00,,,0.00,VWS V14.01,2013-05-11 07:48:00,
2013-05-11 02:54:00,44.2,38.5,29.96,NE,56,0.0,0.0,80,0.00,,,0.00,VWS V14.01,2013-05-11 07:54:00,
2013-05-11 03:00:00,44.2,38.5,29.96,NE,56,0.0,0.0,80,0.00,,,0.00,VWS V14.01,2013-05-11 08:00:00,
2013-05-11 03:06:00,44.4,38.7,29.96,NE,56,0.0,0.0,80,0.00,,,0.00,VWS V14.01,2013-05-11 08:06:00,
2013-05-11 03:12:00,44.6,38.8,29.96,NE,56,0.0,0.0,80,0.00,,,0.00,VWS V14.01,2013-05-11 08:12:00,
2013-05-11 03:17:00,44.6,38.8,29.96,NE,56,0.0,0.0,80,0.00,,,0.00,VWS V14.01,2013-05-11 08:17:00,
2013-05-11 03:23:00,44.8,39.0,29.96,NE,56,0.0,0.0,80,0.00,,,0.00,VWS V14.01,2013-05-11 08:23:00,
2013-05-11 03:28:00,44.8,39.3,29.96,NE,56,0.0,0.0,81,0.00,,,0.00,VWS V14.01,2013-05-11 08:28:00,
2013-05-11 03:33:00,44.8,39.3,29.96,NE,56,0.0,0.0,81,0.00,,,0.00,VWS V14.01,2013-05-11 08:33:00,
2013-05-11 03:38:00,44.8,39.3,29.96,NE,56,0.0,0.0,81,0.00,,,0.00,VWS V14.01,2013-05-11 08:38:00,
2013-05-11 03:44:00,45.0,39.5,29.96,NE,56,0.0,0.0,81,0.00,,,0.00,VWS V14.01,2013-05-11 08:44:00,
2013-05-11 03:50:00,45.1,39.7,29.96,NE,56,0.0,0.0,81,0.00,,,0.00,VWS V14.01,2013-05-11 08:50:00,
2013-05-11 03:55:00,45.1,39.7,29.96,NE,56,0.0,0.0,81,0.00,,,0.00,VWS V14.01,2013-05-11 08:55:00,
2013-05-11 04:00:00,45.3,39.8,29.93,NE,56,0.0,0.0,81,0.00,,,0.00,VWS V14.01,2013-05-11 09:00:00,
2013-05-11 04:06:00,45.3,40.2,29.93,NE,56,0.0,0.0,82,0.00,,,0.00,VWS V14.01,2013-05-11 09:06:00,
2013-05-11 04:12:00,45.3,40.2,29.96,NE,56,0.0,0.0,82,0.00,,,0.00,VWS V14.01,2013-05-11 09:12:00,
2013-05-11 04:17:00,45.5,40.3,29.96,NE,56,0.0,0.0,82,0.00,,,0.00,VWS V14.01,2013-05-11 09:17:00,
2013-05-11 04:23:00,45.9,40.7,29.96,NE,56,0.0,0.0,82,0.00,,,0.00,VWS V14.01,2013-05-11 09:23:00,
2013-05-11 04:28:00,46.2,41.0,29.96,NE,56,0.0,0.0,82,0.00,,,0.00,VWS V14.01,2013-05-11 09:28:00,
2013-05-11 04:34:00,46.6,41.4,29.96,NE,56,0.0,0.0,82,0.00,,,0.00,VWS V14.01,2013-05-11 09:34:00,
2013-05-11 04:39:00,46.9,41.7,29.96,NE,56,0.0,0.0,82,0.00,,,0.00,VWS V14.01,2013-05-11 09:39:00,
2013-05-11 04:44:00,47.3,42.1,29.96,NE,56,0.0,0.0,82,0.00,,,0.00,VWS V14.01,2013-05-11 09:44:00,
2013-05-11 04:49:00,47.8,42.9,29.96,NE,56,0.0,0.0,83,0.00,,,0.00,VWS V14.01,2013-05-11 09:49:00,
2013-05-11 04:55:00,48.2,43.0,29.96,NE,56,0.0,0.0,82,0.00,,,0.00,VWS V14.01,2013-05-11 09:55:00,
2013-05-11 05:00:00,48.7,43.8,29.93,NE,56,0.0,0.0,83,0.00,,,0.00,VWS V14.01,2013-05-11 10:00:00,
2013-05-11 05:06:00,48.9,44.0,29.93,NE,56,0.0,0.0,83,0.00,,,0.00,VWS V14.01,2013-05-11 10:06:00,
2013-05-11 05:11:00,49.3,44.3,29.96,NE,56,0.0,0.0,83,0.00,,,0.00,VWS V14.01,2013-05-11 10:11:00,
2013-05-11 05:16:00,49.5,44.5,29.96,NE,56,0.0,0.0,83,0.00,,,0.00,VWS V14.01,2013-05-11 10:16:00,
2013-05-11 05:22:00,49.6,44.7,29.96,NE,56,0.0,0.0,83,0.00,,,0.00,VWS V14.01,2013-05-11 10:22:00,
2013-05-11 05:27:00,49.8,44.9,29.93,NE,56,0.0,0.0,83,0.00,,,0.00,VWS V14.01,2013-05-11 10:27:00,
2013-05-11 05:33:00,50.0,45.0,29.93,NE,56,0.0,0.0,83,0.00,,,0.00,VWS V14.01,2013-05-11 10:33:00,
2013-05-11 05:38:00,50.2,45.2,29.93,NE,56,0.0,0.0,83,0.00,,,0.00,VWS V14.01,2013-05-11 10:38:00,
2013-05-11 05:44:00,50.2,45.2,29.96,NE,56,0.0,0.0,83,0.00,,,0.00,VWS V14.01,2013-05-11 10:44:00,
2013-05-11 05:50:00,50.2,45.2,29.96,NE,56,0.0,0.0,83,0.00,,,0.00,VWS V14.01,2013-05-11 10:50:00,
2013-05-11 05:55:00,50.2,45.2,29.96,NE,56,0.0,0.0,83,0.00,,,0.00,VWS V14.01,2013-05-11 10:55:00,
2013-05-11 06:00:00,50.5,45.6,29.96,NE,56,0.0,0.0,83,0.00,,,0.00,VWS V14.01,2013-05-11 11:00:00,
2013-05-11 06:06:00,50.7,45.8,29.96,NE,56,0.0,0.0,83,0.00,,,0.00,VWS V14.01,2013-05-11 11:06:00,
2013-05-11 06:12:00,50.9,45.6,29.99,NE,56,0.0,0.0,82,0.00,,,0.00,VWS V14.01,2013-05-11 11:12:00,
2013-05-11 06:18:00,51.3,44.0,29.99,NW,314,0.0,2.7,76,0.00,,,0.00,VWS V14.01,2013-05-11 11:18:00,
2013-05-11 06:23:00,51.6,42.9,29.99,North,353,0.0,0.0,72,0.00,,,0.00,VWS V14.01,2013-05-11 11:23:00,
2013-05-11 06:29:00,51.8,42.3,29.99,NW,320,0.0,0.0,70,0.00,,,0.00,VWS V14.01,2013-05-11 11:29:00,
2013-05-11 06:34:00,52.3,41.3,29.99,WSW,258,0.0,0.0,66,0.00,,,0.00,VWS V14.01,2013-05-11 11:34:00,
2013-05-11 06:39:00,52.9,41.0,29.99,NNW,328,0.0,2.2,64,0.00,,,0.00,VWS V14.01,2013-05-11 11:39:00,
2013-05-11 06:44:00,53.2,40.6,29.99,North,5,0.0,0.0,62,0.00,,,0.00,VWS V14.01,2013-05-11 11:44:00,
2013-05-11 06:49:00,53.6,39.6,29.99,NNW,333,6.3,6.3,59,0.00,,,0.00,VWS V14.01,2013-05-11 11:49:00,
2013-05-11 06:55:00,53.8,38.5,29.99,NW,309,7.2,7.2,56,0.00,,,0.00,VWS V14.01,2013-05-11 11:55:00,
2013-05-11 07:00:00,54.0,37.7,29.99,NE,45,8.1,8.1,54,0.00,,,0.00,VWS V14.01,2013-05-11 12:00:00,
2013-05-11 07:06:00,54.0,36.3,29.99,East,88,6.3,6.3,51,0.00,,,0.00,VWS V14.01,2013-05-11 12:06:00,
2013-05-11 07:11:00,53.8,35.1,29.99,East,88,6.3,6.3,49,0.00,,,0.00,VWS V14.01,2013-05-11 12:11:00,
2013-05-11 07:17:00,54.0,35.2,29.99,East,88,6.3,6.3,49,0.00,,,0.00,VWS V14.01,2013-05-11 12:17:00,
2013-05-11 07:22:00,53.8,34.6,29.99,NW,326,8.1,8.1,48,0.00,,,0.00,VWS V14.01,2013-05-11 12:22:00,
2013-05-11 07:28:00,53.8,34.0,30.02,NW,326,8.1,8.1,47,0.00,,,0.00,VWS V14.01,2013-05-11 12:28:00,
2013-05-11 07:33:00,53.6,33.3,30.02,North,357,10.7,10.7,46,0.00,,,0.00,VWS V14.01,2013-05-11 12:33:00,
2013-05-11 07:39:00,53.2,33.5,30.02,NW,325,6.3,6.3,47,0.00,,,0.00,VWS V14.01,2013-05-11 12:39:00,
2013-05-11 07:45:00,53.6,33.9,30.02,NNE,28,5.4,5.4,47,0.00,,,0.00,VWS V14.01,2013-05-11 12:45:00,
2013-05-11 07:50:00,54.0,33.1,30.02,NE,38,6.3,6.3,45,0.00,,,0.00,VWS V14.01,2013-05-11 12:50:00,
2013-05-11 07:56:00,53.8,31.8,30.02,NNE,29,7.2,7.2,43,0.00,,,0.00,VWS V14.01,2013-05-11 12:56:00,
2013-05-11 08:02:00,53.4,30.3,30.02,WNW,294,4.5,4.9,41,0.00,,,0.00,VWS V14.01,2013-05-11 13:02:00,
2013-05-11 08:08:00,54.1,29.8,30.02,NE,37,11.6,11.6,39,0.00,,,0.00,VWS V14.01,2013-05-11 13:08:00,
2013-05-11 08:13:00,54.3,29.3,30.05,NE,45,7.2,7.2,38,0.00,,,0.00,VWS V14.01,2013-05-11 13:13:00,
2013-05-11 08:18:00,54.1,28.5,30.05,NE,51,6.3,6.3,37,0.00,,,0.00,VWS V14.01,2013-05-11 13:18:00,
2013-05-11 08:23:00,54.1,29.1,30.05,NE,54,5.4,5.4,38,0.00,,,0.00,VWS V14.01,2013-05-11 13:23:00,
2013-05-11 08:29:00,55.0,28.6,30.05,NNE,27,8.1,8.1,36,0.00,,,0.00,VWS V14.01,2013-05-11 13:29:00,
2013-05-11 08:34:00,55.9,28.7,30.05,NNE,32,0.0,0.0,35,0.00,,,0.00,VWS V14.01,2013-05-11 13:34:00,
2013-05-11 08:39:00,56.1,28.9,30.05,NNE,32,0.0,0.0,35,0.00,,,0.00,VWS V14.01,2013-05-11 13:39:00,
2013-05-11 08:44:00,56.5,29.2,30.05,NNE,32,0.0,0.0,35,0.00,,,0.00,VWS V14.01,2013-05-11 13:44:00,
2013-05-11 08:50:00,57.6,30.1,30.05,NNE,32,0.0,0.0,35,0.00,,,0.00,VWS V14.01,2013-05-11 13:50:00,
2013-05-11 08:56:00,57.6,28.0,30.05,NNE,32,0.0,0.0,32,0.00,,,0.00,VWS V14.01,2013-05-11 13:56:00,
2013-05-11 09:01:00,57.2,27.6,30.05,NNE,32,0.0,0.0,32,0.00,,,0.00,VWS V14.01,2013-05-11 14:01:00,
2013-05-11 09:06:00,57.4,27.8,30.05,NNE,32,0.0,0.0,32,0.00,,,0.00,VWS V14.01,2013-05-11 14:06:00,
2013-05-11 09:12:00,57.7,26.5,30.05,North,10,5.4,5.4,30,0.00,,,0.00,VWS V14.01,2013-05-11 14:12:00,
2013-05-11 09:17:00,57.7,26.5,30.05,NE,34,5.4,5.4,30,0.00,,,0.00,VWS V14.01,2013-05-11 14:17:00,
2013-05-11 09:22:00,58.1,26.0,30.05,NNE,32,8.1,8.1,29,0.00,,,0.00,VWS V14.01,2013-05-11 14:22:00,
2013-05-11 09:28:00,58.1,26.0,30.05,NNE,32,8.1,8.1,29,0.00,,,0.00,VWS V14.01,2013-05-11 14:28:00,
2013-05-11 09:34:00,58.1,24.3,30.05,NNE,32,8.1,8.1,27,0.00,,,0.00,VWS V14.01,2013-05-11 14:34:00,
2013-05-11 09:40:00,58.1,24.3,30.05,NNE,28,7.2,7.2,27,0.00,,,0.00,VWS V14.01,2013-05-11 14:40:00,
2013-05-11 09:46:00,58.1,24.3,30.05,NNE,16,5.4,5.4,27,0.00,,,0.00,VWS V14.01,2013-05-11 14:46:00,
2013-05-11 09:51:00,58.1,24.3,30.05,NNE,16,5.4,5.4,27,0.00,,,0.00,VWS V14.01,2013-05-11 14:51:00,
2013-05-11 09:56:00,58.6,24.8,30.05,NNE,16,5.4,5.4,27,0.00,,,0.00,VWS V14.01,2013-05-11 14:56:00,
2013-05-11 10:02:00,59.0,24.2,30.08,NNE,16,5.4,5.4,26,0.00,,,0.00,VWS V14.01,2013-05-11 15:02:00,
2013-05-11 10:08:00,58.6,23.9,30.08,NNE,16,5.4,5.4,26,0.00,,,0.00,VWS V14.01,2013-05-11 15:08:00,
2013-05-11 10:13:00,59.4,23.6,30.05,NNE,16,5.4,5.4,25,0.00,,,0.00,VWS V14.01,2013-05-11 15:13:00,
2013-05-11 10:18:00,58.8,23.1,30.05,NNE,16,5.4,5.4,25,0.00,,,0.00,VWS V14.01,2013-05-11 15:18:00,
2013-05-11 10:24:00,58.8,24.0,30.05,NNE,16,5.4,5.4,26,0.00,,,0.00,VWS V14.01,2013-05-11 15:24:00,
2013-05-11 10:30:00,59.5,23.7,30.05,NNE,16,5.4,5.4,25,0.00,,,0.00,VWS V14.01,2013-05-11 15:30:00,
2013-05-11 10:36:00,59.5,23.7,30.05,NNE,16,5.4,5.4,25,0.00,,,0.00,VWS V14.01,2013-05-11 15:36:00,
2013-05-11 10:41:00,60.1,23.2,30.08,NNE,16,5.4,5.4,24,0.00,,,0.00,VWS V14.01,2013-05-11 15:41:00,
2013-05-11 10:47:00,60.4,23.5,30.08,NNE,16,5.4,5.4,24,0.00,,,0.00,VWS V14.01,2013-05-11 15:47:00,
2013-05-11 10:52:00,60.4,23.5,30.08,NNE,16,5.4,5.4,24,0.00,,,0.00,VWS V14.01,2013-05-11 15:52:00,
2013-05-11 10:57:00,59.7,22.9,30.08,NNE,16,5.4,5.4,24,0.00,,,0.00,VWS V14.01,2013-05-11 15:57:00,
2013-05-11 11:02:00,60.1,21.1,30.08,NNE,16,5.4,5.4,22,0.00,,,0.00,VWS V14.01,2013-05-11 16:02:00,
2013-05-11 11:07:00,60.3,21.3,30.08,NNE,16,5.4,5.4,22,0.00,,,0.00,VWS V14.01,2013-05-11 16:07:00,
2013-05-11 11:13:00,60.4,18.0,30.08,NNE,16,5.4,5.4,19,0.00,,,0.00,VWS V14.01,2013-05-11 16:13:00,
2013-05-11 11:18:00,59.9,17.6,30.08,NNE,16,5.4,5.4,19,0.00,,,0.00,VWS V14.01,2013-05-11 16:18:00,
2013-05-11 11:23:00,60.1,21.1,30.08,NNE,16,5.4,5.4,22,0.00,,,0.00,VWS V14.01,2013-05-11 16:23:00,
2013-05-11 11:28:00,59.9,17.6,30.08,NNE,16,5.4,5.4,19,0.00,,,0.00,VWS V14.01,2013-05-11 16:28:00,
2013-05-11 11:34:00,59.7,20.8,30.08,NNE,16,5.4,5.4,22,0.00,,,0.00,VWS V14.01,2013-05-11 16:34:00,
2013-05-11 11:40:00,60.3,21.3,30.08,NNE,16,5.4,5.4,22,0.00,,,0.00,VWS V14.01,2013-05-11 16:40:00,
2013-05-11 11:45:00,59.7,20.8,30.08,NNE,16,5.4,5.4,22,0.00,,,0.00,VWS V14.01,2013-05-11 16:45:00,
2013-05-11 11:50:00,59.9,21.0,30.08,NNE,16,5.4,5.4,22,0.00,,,0.00,VWS V14.01,2013-05-11 16:50:00,
2013-05-11 11:56:00,60.6,21.6,30.11,NNE,16,5.4,5.4,22,0.00,,,0.00,VWS V14.01,2013-05-11 16:56:00,
2013-05-11 12:01:00,60.1,17.7,30.11,NNE,16,5.4,5.4,19,0.00,,,0.00,VWS V14.01,2013-05-11 17:01:00,
2013-05-11 12:07:00,60.1,21.1,30.11,NNE,16,5.4,5.4,22,0.00,,,0.00,VWS V14.01,2013-05-11 17:07:00,
2013-05-11 12:12:00,59.7,20.8,30.11,NNE,16,5.4,5.4,22,0.00,,,0.00,VWS V14.01,2013-05-11 17:12:00,
2013-05-11 12:18:00,59.9,21.0,30.11,NNE,16,5.4,5.4,22,0.00,,,0.00,VWS V14.01,2013-05-11 17:18:00,
2013-05-11 12:24:00,60.4,21.4,30.11,NNE,16,5.4,5.4,22,0.00,,,0.00,VWS V14.01,2013-05-11 17:24:00,
2013-05-11 12:30:00,60.4,21.4,30.11,NNE,16,5.4,5.4,22,0.00,,,0.00,VWS V14.01,2013-05-11 17:30:00,
2013-05-11 12:36:00,60.4,21.4,30.11,NNE,16,5.4,5.4,22,0.00,,,0.00,VWS V14.01,2013-05-11 17:36:00,
2013-05-11 12:41:00,60.4,21.4,30.11,NNE,16,5.4,5.4,22,0.00,,,0.00,VWS V14.01,2013-05-11 17:41:00,
2013-05-11 12:46:00,60.6,21.6,30.11,NNE,16,5.4,5.4,22,0.00,,,0.00,VWS V14.01,2013-05-11 17:46:00,
2013-05-11 12:51:00,61.7,21.4,30.11,NNE,16,5.4,5.4,21,0.00,,,0.00,VWS V14.01,2013-05-11 17:51:00,
2013-05-11 12:56:00,60.6,21.6,30.11,NNE,16,5.4,5.4,22,0.00,,,0.00,VWS V14.01,2013-05-11 17:56:00,
2013-05-11 13:01:00,61.7,21.4,30.11,NNE,16,5.4,5.4,21,0.00,,,0.00,VWS V14.01,2013-05-11 18:01:00,
2013-05-11 13:06:00,60.3,17.9,30.11,NNE,16,5.4,5.4,19,0.00,,,0.00,VWS V14.01,2013-05-11 18:06:00,
2013-05-11 13:12:00,60.6,21.6,30.11,NE,54,6.3,6.3,22,0.00,,,0.00,VWS V14.01,2013-05-11 18:12:00,
2013-05-11 13:17:00,60.6,21.6,30.11,NNW,342,5.4,6.3,22,0.00,,,0.00,VWS V14.01,2013-05-11 18:17:00,
2013-05-11 13:23:00,61.7,21.4,30.11,NNW,329,0.0,4.0,21,0.00,,,0.00,VWS V14.01,2013-05-11 18:23:00,
2013-05-11 13:29:00,61.2,20.9,30.11,NE,51,5.4,5.4,21,0.00,,,0.00,VWS V14.01,2013-05-11 18:29:00,
2013-05-11 13:34:00,61.5,21.2,30.11,NE,40,6.3,6.3,21,0.00,,,0.00,VWS V14.01,2013-05-11 18:34:00,
2013-05-11 13:39:00,61.0,20.8,30.11,NNE,28,5.4,5.4,21,0.00,,,0.00,VWS V14.01,2013-05-11 18:39:00,
2013-05-11 13:44:00,61.0,20.8,30.11,NE,42,7.2,7.2,21,0.00,,,0.00,VWS V14.01,2013-05-11 18:44:00,
2013-05-11 13:50:00,61.5,21.2,30.11,ENE,68,7.2,7.2,21,0.00,,,0.00,VWS V14.01,2013-05-11 18:50:00,
2013-05-11 13:55:00,61.5,18.9,30.11,North,353,12.5,12.5,19,0.00,,,0.00,VWS V14.01,2013-05-11 18:55:00,
2013-05-11 14:00:00,60.6,21.6,30.11,NE,40,6.3,6.3,22,0.00,,,0.00,VWS V14.01,2013-05-11 19:00:00,
2013-05-11 14:06:00,60.4,21.4,30.11,ENE,77,9.8,9.8,22,0.00,,,0.00,VWS V14.01,2013-05-11 19:06:00,
2013-05-11 14:12:00,60.4,21.4,30.11,NW,318,6.3,6.3,22,0.00,,,0.00,VWS V14.01,2013-05-11 19:12:00,
2013-05-11 14:17:00,60.1,17.7,30.11,West,274,8.1,8.1,19,0.00,,,0.00,VWS V14.01,2013-05-11 19:17:00,
2013-05-11 14:23:00,60.6,21.6,30.11,NW,312,10.7,10.7,22,0.00,,,0.00,VWS V14.01,2013-05-11 19:23:00,
2013-05-11 14:29:00,61.0,18.5,30.11,NNW,341,7.2,7.6,19,0.00,,,0.00,VWS V14.01,2013-05-11 19:29:00,
2013-05-11 14:34:00,60.4,18.0,30.11,NNE,24,11.6,11.6,19,0.00,,,0.00,VWS V14.01,2013-05-11 19:34:00,
2013-05-11 14:40:00,59.5,17.3,30.11,NNE,23,10.7,10.7,19,0.00,,,0.00,VWS V14.01,2013-05-11 19:40:00,
2013-05-11 14:45:00,60.6,21.6,30.11,NE,37,8.1,8.1,22,0.00,,,0.00,VWS V14.01,2013-05-11 19:45:00,
2013-05-11 14:50:00,60.3,17.9,30.11,North,11,8.1,8.1,19,0.00,,,0.00,VWS V14.01,2013-05-11 19:50:00,
2013-05-11 14:55:00,60.1,17.7,30.11,NNE,26,8.9,8.9,19,0.00,,,0.00,VWS V14.01,2013-05-11 19:55:00,
2013-05-11 15:01:00,60.4,18.0,30.11,North,353,8.1,8.1,19,0.00,,,0.00,VWS V14.01,2013-05-11 20:01:00,
2013-05-11 15:06:00,61.3,18.8,30.11,East,79,8.1,8.1,19,0.00,,,0.00,VWS V14.01,2013-05-11 20:06:00,
2013-05-11 15:12:00,61.3,18.8,30.11,NE,36,5.4,5.4,19,0.00,,,0.00,VWS V14.01,2013-05-11 20:12:00,
2013-05-11 15:18:00,60.8,18.3,30.11,North,357,6.3,6.3,19,0.00,,,0.00,VWS V14.01,2013-05-11 20:18:00,
2013-05-11 15:23:00,59.5,17.3,30.11,ENE,64,7.2,8.3,19,0.00,,,0.00,VWS V14.01,2013-05-11 20:23:00,
2013-05-11 15:29:00,59.7,17.4,30.11,North,10,5.4,5.4,19,0.00,,,0.00,VWS V14.01,2013-05-11 20:29:00,
2013-05-11 15:34:00,60.4,18.0,30.11,West,274,8.1,8.1,19,0.00,,,0.00,VWS V14.01,2013-05-11 20:34:00,
2013-05-11 15:40:00,61.5,18.9,30.11,NNE,12,9.8,9.8,19,0.00,,,0.00,VWS V14.01,2013-05-11 20:40:00,
2013-05-11 15:46:00,60.6,15.6,30.11,NNE,29,11.6,11.6,17,0.00,,,0.00,VWS V14.01,2013-05-11 20:46:00,
2013-05-11 15:51:00,60.4,18.0,30.11,NW,305,5.4,5.4,19,0.00,,,0.00,VWS V14.01,2013-05-11 20:51:00,
2013-05-11 15:56:00,60.3,15.3,30.11,NNE,14,8.9,8.9,17,0.00,,,0.00,VWS V14.01,2013-05-11 20:56:00,
2013-05-11 16:01:00,59.9,17.6,30.11,WNW,295,10.7,10.7,19,0.00,,,0.00,VWS V14.01,2013-05-11 21:01:00,
2013-05-11 16:06:00,61.0,18.5,30.11,NE,45,8.1,8.1,19,0.00,,,0.00,VWS V14.01,2013-05-11 21:06:00,
2013-05-11 16:12:00,61.2,18.6,30.11,NNW,334,7.2,7.2,19,0.00,,,0.00,VWS V14.01,2013-05-11 21:12:00,
2013-05-11 16:17:00,60.4,15.4,30.11,NNE,23,11.6,11.6,17,0.00,,,0.00,VWS V14.01,2013-05-11 21:17:00,
2013-05-11 16:22:00,58.6,14.0,30.11,North,357,7.2,7.2,17,0.00,,,0.00,VWS V14.01,2013-05-11 21:22:00,
2013-05-11 16:27:00,58.5,13.8,30.11,NNE,25,7.2,7.2,17,0.00,,,0.00,VWS V14.01,2013-05-11 21:27:00,
2013-05-11 16:33:00,59.2,17.0,30.11,NNE,29,7.2,7.2,19,0.00,,,0.00,VWS V14.01,2013-05-11 21:33:00,
2013-05-11 16:39:00,60.4,18.0,30.11,NE,50,4.5,4.5,19,0.00,,,0.00,VWS V14.01,2013-05-11 21:39:00,
2013-05-11 16:44:00,60.1,15.1,30.11,NE,36,7.2,7.2,17,0.00,,,0.00,VWS V14.01,2013-05-11 21:44:00,
2013-05-11 16:50:00,60.6,18.2,30.11,North,353,0.0,3.1,19,0.00,,,0.00,VWS V14.01,2013-05-11 21:50:00,
2013-05-11 16:56:00,60.4,15.4,30.11,NE,43,10.7,10.7,17,0.00,,,0.00,VWS V14.01,2013-05-11 21:56:00,
2013-05-11 17:01:00,59.5,14.7,30.11,NE,42,6.3,6.3,17,0.00,,,0.00,VWS V14.01,2013-05-11 22:01:00,
2013-05-11 17:07:00,59.2,14.4,30.11,NNE,31,5.4,5.4,17,0.00,,,0.00,VWS V14.01,2013-05-11 22:07:00,
2013-05-11 17:12:00,59.0,14.3,30.11,NNE,25,7.2,7.2,17,0.00,,,0.00,VWS V14.01,2013-05-11 22:12:00,
2013-05-11 17:18:00,58.6,14.0,30.11,NNW,332,10.7,10.7,17,0.00,,,0.00,VWS V14.01,2013-05-11 22:18:00,
2013-05-11 17:24:00,58.5,13.8,30.11,NW,311,6.3,6.3,17,0.00,,,0.00,VWS V14.01,2013-05-11 22:24:00,
2013-05-11 17:29:00,58.3,13.7,30.11,NNE,27,8.1,8.1,17,0.00,,,0.00,VWS V14.01,2013-05-11 22:29:00,
2013-05-11 17:35:00,58.1,13.5,30.11,NNE,31,11.6,11.6,17,0.00,,,0.00,VWS V14.01,2013-05-11 22:35:00,
2013-05-11 17:40:00,58.5,13.8,30.11,NNW,331,8.1,8.1,17,0.00,,,0.00,VWS V14.01,2013-05-11 22:40:00,
2013-05-11 17:46:00,57.9,13.4,30.11,NNE,17,7.2,7.2,17,0.00,,,0.00,VWS V14.01,2013-05-11 22:46:00,
2013-05-11 17:51:00,57.9,13.4,30.11,NNW,333,8.1,8.1,17,0.00,,,0.00,VWS V14.01,2013-05-11 22:51:00,
2013-05-11 17:56:00,57.7,13.2,30.11,WSW,254,0.0,4.0,17,0.00,,,0.00,VWS V14.01,2013-05-11 22:56:00,
2013-05-11 18:02:00,57.7,13.2,30.14,North,357,4.5,4.5,17,0.00,,,0.00,VWS V14.01,2013-05-11 23:02:00,
2013-05-11 18:07:00,58.1,13.5,30.14,North,353,11.6,11.6,17,0.00,,,0.00,VWS V14.01,2013-05-11 23:07:00,
2013-05-11 18:13:00,58.1,13.5,30.14,NNE,17,7.2,7.2,17,0.00,,,0.00,VWS V14.01,2013-05-11 23:13:00,
2013-05-11 18:18:00,58.6,14.0,30.14,NNE,32,0.0,6.3,17,0.00,,,0.00,VWS V14.01,2013-05-11 23:18:00,
2013-05-11 18:24:00,58.8,14.1,30.14,North,353,5.4,5.4,17,0.00,,,0.00,VWS V14.01,2013-05-11 23:24:00,
2013-05-11 18:30:00,60.6,11.2,30.14,NE,51,8.1,8.1,14,0.00,,,0.00,VWS V14.01,2013-05-11 23:30:00,
2013-05-11 18:35:00,59.4,10.2,30.14,NNE,22,12.5,12.5,14,0.00,,,0.00,VWS V14.01,2013-05-11 23:35:00,
2013-05-11 18:40:00,58.8,9.8,30.14,ESE,110,7.2,7.2,14,0.00,,,0.00,VWS V14.01,2013-05-11 23:40:00,
2013-05-11 18:45:00,58.8,9.8,30.14,NE,43,6.3,6.3,14,0.00,,,0.00,VWS V14.01,2013-05-11 23:45:00,
2013-05-11 18:51:00,60.4,11.0,30.14,NE,34,6.3,6.3,14,0.00,,,0.00,VWS V14.01,2013-05-11 23:51:00,
2013-05-11 18:56:00,60.4,11.0,30.14,NW,309,4.5,4.5,14,0.00,,,0.00,VWS V14.01,2013-05-11 23:56:00,
2013-05-11 19:02:00,59.4,10.2,30.14,ENE,62,7.2,7.2,14,0.00,,,0.00,VWS V14.01,2013-05-12 00:02:00,
2013-05-11 19:07:00,61.3,11.8,30.14,NW,322,7.2,7.2,14,0.00,,,0.00,VWS V14.01,2013-05-12 00:07:00,
2013-05-11 19:12:00,61.3,11.8,30.14,NE,40,6.3,6.3,14,0.00,,,0.00,VWS V14.01,2013-05-12 00:12:00,
2013-05-11 19:17:00,61.0,11.5,30.14,NNE,26,8.1,8.1,14,0.00,,,0.00,VWS V14.01,2013-05-12 00:17:00,
2013-05-11 19:23:00,60.1,10.8,30.14,NW,321,7.2,7.2,14,0.00,,,0.00,VWS V14.01,2013-05-12 00:23:00,
2013-05-11 19:28:00,58.3,9.3,30.14,NNE,16,5.4,5.4,14,0.00,,,0.00,VWS V14.01,2013-05-12 00:28:00,
2013-05-11 19:34:00,55.8,8.8,30.14,WNW,298,5.4,5.4,15,0.00,,,0.00,VWS V14.01,2013-05-12 00:34:00,
2013-05-11 19:40:00,54.5,7.8,30.14,North,11,5.4,5.4,15,0.00,,,0.00,VWS V14.01,2013-05-12 00:40:00,
2013-05-11 19:45:00,54.1,7.5,30.14,North,357,5.4,5.4,15,0.00,,,0.00,VWS V14.01,2013-05-12 00:45:00,
2013-05-11 19:50:00,53.6,7.1,30.14,NE,40,0.0,2.7,15,0.00,,,0.00,VWS V14.01,2013-05-12 00:50:00,
2013-05-11 19:55:00,53.2,8.2,30.14,NE,48,7.2,7.2,16,0.00,,,0.00,VWS V14.01,2013-05-12 00:55:00,
2013-05-11 20:01:00,53.1,8.1,30.14,NNE,15,10.7,10.7,16,0.00,,,0.00,VWS V14.01,2013-05-12 01:01:00,
2013-05-11 20:06:00,52.7,7.8,30.14,ENE,63,4.5,4.5,16,0.00,,,0.00,VWS V14.01,2013-05-12 01:06:00,
2013-05-11 20:12:00,52.3,7.5,30.14,ESE,115,0.0,3.6,16,0.00,,,0.00,VWS V14.01,2013-05-12 01:12:00,
2013-05-11 20:17:00,52.0,7.2,30.14,NW,313,0.0,2.7,16,0.00,,,0.00,VWS V14.01,2013-05-12 01:17:00,
2013-05-11 20:22:00,51.6,6.9,30.14,NNW,328,0.0,0.0,16,0.00,,,0.00,VWS V14.01,2013-05-12 01:22:00,
2013-05-11 20:27:00,51.4,10.6,30.14,North,357,0.0,3.1,19,0.00,,,0.00,VWS V14.01,2013-05-12 01:27:00,
2013-05-11 20:33:00,51.1,10.3,30.14,NNE,29,0.0,0.0,19,0.00,,,0.00,VWS V14.01,2013-05-12 01:33:00,
2013-05-11 20:38:00,50.9,10.1,30.14,ESE,112,0.0,0.0,19,0.00,,,0.00,VWS V14.01,2013-05-12 01:38:00,
2013-05-11 20:44:00,50.5,9.8,30.14,NNE,15,0.0,0.0,19,0.00,,,0.00,VWS V14.01,2013-05-12 01:44:00,
2013-05-11 20:49:00,50.4,9.7,30.14,NNE,31,0.0,0.0,19,0.00,,,0.00,VWS V14.01,2013-05-12 01:49:00,
2013-05-11 20:55:00,49.8,9.2,30.14,NNE,23,0.0,0.0,19,0.00,,,0.00,VWS V14.01,2013-05-12 01:55:00,
2013-05-11 21:00:00,49.6,9.1,30.14,NNE,22,0.0,0.0,19,0.00,,,0.00,VWS V14.01,2013-05-12 02:00:00,
2013-05-11 21:05:00,49.5,8.9,30.14,North,0,0.0,0.0,19,0.00,,,0.00,VWS V14.01,2013-05-12 02:05:00,
2013-05-11 21:11:00,49.1,8.6,30.17,WNW,295,0.0,0.0,19,0.00,,,0.00,VWS V14.01,2013-05-12 02:11:00,
2013-05-11 21:16:00,48.7,8.3,30.17,WNW,295,0.0,0.0,19,0.00,,,0.00,VWS V14.01,2013-05-12 02:16:00,
2013-05-11 21:22:00,48.2,7.9,30.17,WNW,295,0.0,0.0,19,0.00,,,0.00,VWS V14.01,2013-05-12 02:22:00,
2013-05-11 21:27:00,48.0,11.0,30.17,WNW,295,0.0,0.0,22,0.00,,,0.00,VWS V14.01,2013-05-12 02:27:00,
2013-05-11 21:33:00,47.3,10.4,30.17,WNW,295,0.0,0.0,22,0.00,,,0.00,VWS V14.01,2013-05-12 02:33:00,
2013-05-11 21:38:00,46.8,9.9,30.17,WNW,295,0.0,0.0,22,0.00,,,0.00,VWS V14.01,2013-05-12 02:38:00,
2013-05-11 21:44:00,46.0,12.2,30.17,WNW,295,0.0,0.0,25,0.00,,,0.00,VWS V14.01,2013-05-12 02:44:00,
2013-05-11 21:50:00,45.3,14.1,30.17,WNW,295,0.0,0.0,28,0.00,,,0.00,VWS V14.01,2013-05-12 02:50:00,
2013-05-11 21:55:00,45.0,13.8,30.17,WNW,295,0.0,0.0,28,0.00,,,0.00,VWS V14.01,2013-05-12 02:55:00,
2013-05-11 22:01:00,44.4,14.2,30.17,WNW,295,0.0,0.0,29,0.00,,,0.00,VWS V14.01,2013-05-12 03:01:00,
2013-05-11 22:07:00,44.1,15.4,30.17,WNW,295,0.0,0.0,31,0.00,,,0.00,VWS V14.01,2013-05-12 03:07:00,
2013-05-11 22:12:00,43.5,14.9,30.17,WNW,295,0.0,0.0,31,0.00,,,0.00,VWS V14.01,2013-05-12 03:12:00,
2013-05-11 22:18:00,43.3,17.5,30.17,WNW,295,0.0,0.0,35,0.00,,,0.00,VWS V14.01,2013-05-12 03:18:00,
2013-05-11 22:23:00,43.3,18.2,30.17,WNW,295,0.0,0.0,36,0.00,,,0.00,VWS V14.01,2013-05-12 03:23:00,
2013-05-11 22:29:00,43.2,18.0,30.17,WNW,295,0.0,0.0,36,0.00,,,0.00,VWS V14.01,2013-05-12 03:29:00,
2013-05-11 22:34:00,43.3,16.9,30.17,North,357,0.0,0.0,34,0.00,,,0.00,VWS V14.01,2013-05-12 03:34:00,
2013-05-11 22:40:00,43.5,16.3,30.17,North,357,0.0,0.0,33,0.00,,,0.00,VWS V14.01,2013-05-12 03:40:00,
2013-05-11 22:46:00,43.3,16.2,30.17,North,357,0.0,0.0,33,0.00,,,0.00,VWS V14.01,2013-05-12 03:46:00,
2013-05-11 22:51:00,43.2,16.0,30.17,North,357,0.0,0.0,33,0.00,,,0.00,VWS V14.01,2013-05-12 03:51:00,
2013-05-11 22:57:00,43.2,16.0,30.17,North,357,0.0,0.0,33,0.00,,,0.00,VWS V14.01,2013-05-12 03:57:00,
2013-05-11 23:01:00,43.0,15.2,30.17,North,357,0.0,0.0,32,0.00,,,0.00,VWS V14.01,2013-05-12 04:01:00,
2013-05-11 23:02:00,43.0,15.2,30.17,North,357,0.0,0.0,32,0.00,,,0.00,VWS V14.01,2013-05-12 04:02:00,
2013-05-11 23:05:00,43.0,15.2,30.17,North,357,0.0,0.0,32,0.00,,,0.00,VWS V14.01,2013-05-12 04:05:00,
2013-05-11 23:07:00,43.0,15.2,30.17,North,357,0.0,0.0,32,0.00,,,0.00,VWS V14.01,2013-05-12 04:07:00,
2013-05-11 23:12:00,42.6,14.8,30.17,North,357,0.0,0.0,32,0.00,,,0.00,VWS V14.01,2013-05-12 04:12:00,
2013-05-11 23:18:00,42.4,14.7,30.17,North,357,0.0,0.0,32,0.00,,,0.00,VWS V14.01,2013-05-12 04:18:00,
2013-05-11 23:23:00,42.3,14.5,30.17,North,357,0.0,0.0,32,0.00,,,0.00,VWS V14.01,2013-05-12 04:23:00,
2013-05-11 23:29:00,42.1,15.1,30.17,North,357,0.0,0.0,33,0.00,,,0.00,VWS V14.01,2013-05-12 04:29:00,
2013-05-11 23:35:00,41.5,14.6,30.17,North,357,0.0,0.0,33,0.00,,,0.00,VWS V14.01,2013-05-12 04:35:00,
2013-05-11 23:40:00,41.2,15.6,30.17,North,357,0.0,0.0,35,0.00,,,0.00,VWS V14.01,2013-05-12 04:40:00,
2013-05-11 23:45:00,41.2,15.6,30.17,North,357,0.0,0.0,35,0.00,,,0.00,VWS V14.01,2013-05-12 04:45:00,
2013-05-11 23:50:00,40.8,15.9,30.17,North,357,0.0,0.0,36,0.00,,,0.00,VWS V14.01,2013-05-12 04:50:00,
2013-05-11 23:56:00,40.5,15.6,30.17,North,357,0.0,0.0,36,0.00,,,0.00,VWS V14.01,2013-05-12 04:56:00,